King of Scandinavia — OVOL2 — position and weather

sailwx.info

Track history (hours):
 
Tides and Currents Weather Stations Pressure Air Temp Water Temp Dewpoint Dewpoint Depression Visibility Wind Speed Wind Dir Waves Ship Positions

King of Scandinavia

Ship's website: http://www.dfds.co.uk/DSW/EN/OnBoard/na/KING.htm

Last reported at 2018-Sep-18 16:55 UTC. Time now 2018-Sep-19 03:22 UTC.
Position N 52°38' E 004°15'.

Length 166 m; beam 27.6 m; draft 6.2 m.

Type: Ship. MMSI: 220449000.

Date/timePositionNaut miles runAvg speedWind from/ knotsBaromVisibWave heightAir tempDewpointWater temp
2018-Sep-18 16:55N 52°38' E 004°15'613.9
2018-Sep-18 16:30N 52°34' E 004°22'613.8
2018-Sep-18 16:04N 52°30' E 004°29'113.8
2018-Sep-18 16:00N 52°29' E 004°30'3 6.2
2018-Sep-18 15:30N 52°28' E 004°35'0 0.4
2018-Sep-18 15:03N 52°28' E 004°35'0 0.0
2018-Sep-18 15:00N 52°28' E 004°35'0 0.0
2018-Sep-18 14:29N 52°28' E 004°35'0 0.0
2018-Sep-18 13:50N 52°28' E 004°35'0 0.0
2018-Sep-18 13:23N 52°28' E 004°35'0 0.0
2018-Sep-18 12:50N 52°28' E 004°35'0 0.0
2018-Sep-18 12:20N 52°28' E 004°35'0 0.0
2018-Sep-18 11:02N 52°28' E 004°35'0 0.0
2018-Sep-18 10:59N 52°28' E 004°35'0 0.0
2018-Sep-18 09:38N 52°28' E 004°35'0 0.0
2018-Sep-18 09:14N 52°28' E 004°35'0 0.0
2018-Sep-18 08:56N 52°28' E 004°35'0 0.0
2018-Sep-18 08:26N 52°28' E 004°35'0 0.0
2018-Sep-18 07:56N 52°28' E 004°35'0 0.1
2018-Sep-18 07:28N 52°28' E 004°35'3 7.9
2018-Sep-18 07:04N 52°28' E 004°30'115.6
2018-Sep-18 07:00N 52°28' E 004°29'815.1
2018-Sep-18 06:30N 52°34' E 004°20'714.7
2018-Sep-18 06:03N 52°39' E 004°12'114.7
2018-Sep-18 06:00N 52°39' E 004°11'815.0
2018-Sep-18 05:30N 52°44' E 004°02'715.0
2018-Sep-18 05:03N 52°48' E 003°53'115.0
2018-Sep-18 05:00N 52°49' E 003°52'915.1
2018-Sep-18 04:23N 52°55' E 003°41'615.4
2018-Sep-18 04:00N 52°59' E 003°34'1017.4
2018-Sep-18 03:27N 53°05' E 003°21'717.7
2018-Sep-18 03:03N 53°09' E 003°11'117.9
2018-Sep-18 03:00N 53°09' E 003°10'917.8
2018-Sep-18 02:30N 53°15' E 002°58'817.9
2018-Sep-18 02:04N 53°19' E 002°47'117.9
2018-Sep-18 02:00N 53°20' E 002°46'918.0
2018-Sep-18 01:30N 53°25' E 002°34'818.1
2018-Sep-18 01:03N 53°30' E 002°23'118.1
2018-Sep-18 01:01N 53°30' E 002°22'918.2
2018-Sep-18 00:30N 53°35' E 002°09'818.2
2018-Sep-18 00:03N 53°39' E 001°56'118.2
2018-Sep-18 00:00N 53°39' E 001°55'1018.2
2018-Sep-17 23:29N 53°44' E 001°41'818.1
2018-Sep-17 23:03N 53°49' E 001°32'2017.9
2018-Sep-17 21:58N 54°03' E 001°08'817.9
2018-Sep-17 21:30N 54°07' E 000°56'817.8
2018-Sep-17 21:02N 54°12' E 000°44'217.9
2018-Sep-17 20:55N 54°13' E 000°41'818.1
2018-Sep-17 20:30N 54°17' E 000°30'1018.3
2018-Sep-17 19:58N 54°23' E 000°16'1118.1
2018-Sep-17 19:21N 54°29' W 000°00'4517.9
2018-Sep-17 16:51N 54°54' W 001°05'618.0
2018-Sep-17 16:31N 54°57' W 001°13'716.0
2018-Sep-17 16:03N 55°01' W 001°24'110.1
2018-Sep-17 16:00N 55°01' W 001°25'2 3.2
2018-Sep-17 15:30N 54°59' W 001°27'0 0.0
2018-Sep-17 15:03N 54°59' W 001°27'0 0.0
2018-Sep-17 15:00N 54°59' W 001°27'0 0.0
2018-Sep-17 14:24N 54°59' W 001°27'0 0.0
2018-Sep-17 13:54N 54°59' W 001°27'0 0.0
2018-Sep-17 13:24N 54°59' W 001°27'0 0.0
2018-Sep-17 12:48N 54°59' W 001°27'0 0.0
2018-Sep-17 12:27N 54°59' W 001°27'0 0.0
2018-Sep-17 11:57N 54°59' W 001°27'0 0.0
2018-Sep-17 11:12N 54°59' W 001°27'0 0.0
2018-Sep-17 10:54N 54°59' W 001°27'0 0.0
2018-Sep-17 10:27N 54°59' W 001°27'0 0.0
2018-Sep-17 09:57N 54°59' W 001°27'0 0.0
2018-Sep-17 09:30N 54°59' W 001°27'0 0.0
2018-Sep-17 08:48N 54°59' W 001°27'0 0.0
2018-Sep-17 08:30N 54°59' W 001°27'0 0.1
2018-Sep-17 08:03N 54°59' W 001°27'0 2.5
2018-Sep-17 08:00N 54°60' W 001°27'510.3
2018-Sep-17 07:30N 54°59' W 001°18'817.8
2018-Sep-17 07:03N 54°55' W 001°06'117.9
2018-Sep-17 07:00N 54°54' W 001°05'7217.3
2018-Sep-17 02:50N 54°14' E 000°38'15115.4
2018-Sep-16 17:01N 52°44' E 004°02'715.6
2018-Sep-16 16:33N 52°39' E 004°11'115.6
2018-Sep-16 16:30N 52°39' E 004°12'715.4
2018-Sep-16 16:03N 52°34' E 004°20'115.4
2018-Sep-16 16:00N 52°34' E 004°21'815.2
2018-Sep-16 15:30N 52°29' E 004°30'3 6.8
2018-Sep-16 15:03N 52°28' E 004°35'0 0.0
2018-Sep-16 15:00N 52°28' E 004°35'0 0.0
2018-Sep-16 14:29N 52°28' E 004°35'0 0.0
2018-Sep-16 13:29N 52°28' E 004°35'0 0.0
2018-Sep-16 13:02N 52°28' E 004°35'0 0.0
2018-Sep-16 12:56N 52°28' E 004°35'0 0.0
2018-Sep-16 12:29N 52°28' E 004°35'0 0.0
2018-Sep-16 12:02N 52°28' E 004°35'0 0.0
2018-Sep-16 11:59N 52°28' E 004°35'0 0.0
2018-Sep-16 11:26N 52°28' E 004°35'0 0.0
2018-Sep-16 10:59N 52°28' E 004°35'0 0.0
2018-Sep-16 10:29N 52°28' E 004°35'0 0.0
2018-Sep-16 10:02N 52°28' E 004°35'0 0.0
2018-Sep-16 09:59N 52°28' E 004°35'0 0.0
2018-Sep-16 09:29N 52°28' E 004°35'0 0.0
2018-Sep-16 09:02N 52°28' E 004°35'0 0.0
2018-Sep-16 08:59N 52°28' E 004°35'0 0.0
2018-Sep-16 08:29N 52°28' E 004°35'0 0.0
2018-Sep-16 08:02N 52°28' E 004°35'0 0.1
2018-Sep-16 07:59N 52°28' E 004°35'0 0.3
2018-Sep-16 07:30N 52°28' E 004°35'4 8.8
2018-Sep-16 07:04N 52°29' E 004°29'115.7
2018-Sep-16 07:01N 52°29' E 004°28'714.6
2018-Sep-16 06:31N 52°35' E 004°19'714.7
2018-Sep-16 06:03N 52°39' E 004°11'115.2
2018-Sep-16 06:00N 52°40' E 004°10'815.0
2018-Sep-16 05:29N 52°45' E 004°00'715.0
2018-Sep-16 05:03N 52°49' E 003°52'114.9
2018-Sep-16 04:59N 52°50' E 003°51'915.1
2018-Sep-16 04:23N 52°55' E 003°40'515.1
2018-Sep-16 04:02N 52°59' E 003°33'415.1
2018-Sep-16 03:48N 53°01' E 003°28'414.9
2018-Sep-16 03:30N 53°04' E 003°23'714.8
2018-Sep-16 03:03N 53°08' E 003°14'315.0
2018-Sep-16 02:50N 53°10' E 003°09'1715.5
2018-Sep-16 01:44N 53°20' E 002°46'418.6
2018-Sep-16 01:30N 53°22' E 002°40'1018.8
2018-Sep-16 00:58N 53°28' E 002°27'1618.7
2018-Sep-16 00:07N 53°37' E 002°04'218.9
2018-Sep-16 00:00N 53°38' E 002°01'918.9
2018-Sep-15 23:31N 53°42' E 001°47'5618.8
2018-Sep-15 20:31N 54°16' E 000°32'1319.1
2018-Sep-15 19:51N 54°24' E 000°14'5319.0
2018-Sep-15 17:02N 54°53' W 001°03'118.6
2018-Sep-15 17:01N 54°53' W 001°04'918.3
2018-Sep-15 16:31N 54°58' W 001°18'512.1
2018-Sep-15 16:03N 55°00' W 001°26'0 5.8
2018-Sep-15 16:00N 55°00' W 001°27'1 1.4
2018-Sep-15 15:30N 54°59' W 001°27'0 0.0
2018-Sep-15 14:52N 54°59' W 001°27'0 0.0
2018-Sep-15 13:52N 54°59' W 001°27'0 0.0
2018-Sep-15 13:22N 54°59' W 001°27'0 0.0
2018-Sep-15 12:52N 54°59' W 001°27'0 0.0
2018-Sep-15 12:25N 54°59' W 001°27'0 0.0
2018-Sep-15 11:55N 54°59' W 001°27'0 0.0
2018-Sep-15 11:25N 54°59' W 001°27'0 0.0
2018-Sep-15 11:01N 54°59' W 001°27'0 0.0
2018-Sep-15 10:55N 54°59' W 001°27'0 0.0
2018-Sep-15 10:25N 54°59' W 001°27'0 0.0
2018-Sep-15 09:55N 54°59' W 001°27'0 0.0
2018-Sep-15 09:28N 54°59' W 001°27'0 0.0
2018-Sep-15 08:58N 54°59' W 001°27'0 0.0
2018-Sep-15 08:28N 54°59' W 001°27'0 0.6
2018-Sep-15 08:03N 54°60' W 001°27'0 5.6
2018-Sep-15 08:00N 54°60' W 001°27'5 9.6
2018-Sep-15 07:31N 54°60' W 001°18'714.7
2018-Sep-15 07:03N 54°56' W 001°08'114.4
2018-Sep-15 06:59N 54°56' W 001°07'23616.3
2018-Sep-14 16:30N 52°37' E 004°16'715.1
2018-Sep-14 16:03N 52°32' E 004°24'115.0
2018-Sep-14 16:00N 52°32' E 004°25'713.9
2018-Sep-14 15:30N 52°28' E 004°35'0 0.7
2018-Sep-14 15:04N 52°28' E 004°35'0 0.0
2018-Sep-14 15:01N 52°28' E 004°35'0 0.0
2018-Sep-14 14:29N 52°28' E 004°35'0 0.0
2018-Sep-14 13:59N 52°28' E 004°35'0 0.0
2018-Sep-14 13:29N 52°28' E 004°35'0 0.0
2018-Sep-14 13:02N 52°28' E 004°35'0 0.0
2018-Sep-14 12:59N 52°28' E 004°35'0 0.0
2018-Sep-14 12:29N 52°28' E 004°35'0 0.0
2018-Sep-14 12:02N 52°28' E 004°35'0 0.0
2018-Sep-14 11:59N 52°28' E 004°35'0 0.0
2018-Sep-14 11:29N 52°28' E 004°35'0 0.0
2018-Sep-14 11:02N 52°28' E 004°35'0 0.0
2018-Sep-14 10:59N 52°28' E 004°35'0 0.0
2018-Sep-14 10:29N 52°28' E 004°35'0 0.0
2018-Sep-14 09:59N 52°28' E 004°35'0 0.0
2018-Sep-14 09:29N 52°28' E 004°35'0 0.0
2018-Sep-14 09:02N 52°28' E 004°35'0 0.0
2018-Sep-14 08:59N 52°28' E 004°35'0 0.0
2018-Sep-14 08:29N 52°28' E 004°35'0 0.0
2018-Sep-14 07:59N 52°28' E 004°35'0 0.2
2018-Sep-14 07:30N 52°28' E 004°35'3 7.8
2018-Sep-14 07:03N 52°28' E 004°29'114.8
2018-Sep-14 07:00N 52°29' E 004°28'714.4
2018-Sep-14 06:30N 52°34' E 004°20'715.0
2018-Sep-14 06:03N 52°39' E 004°12'115.3
2018-Sep-14 05:59N 52°39' E 004°11'7116.9
2018-Sep-14 01:46N 53°23' E 002°38'3018.1
2018-Sep-14 00:07N 53°39' E 001°55'13019.2
2018-Sep-13 17:23N 54°54' W 001°06'619.6
2018-Sep-13 17:03N 54°58' W 001°15'119.6
2018-Sep-13 17:00N 54°58' W 001°16'612.2
2018-Sep-13 16:30N 54°60' W 001°27'0 0.9
2018-Sep-13 16:03N 54°59' W 001°27'0 0.0
2018-Sep-13 16:00N 54°59' W 001°27'0 0.0
2018-Sep-13 15:30N 54°59' W 001°27'0 0.0
2018-Sep-13 14:57N 54°59' W 001°27'0 0.0
2018-Sep-13 13:57N 54°59' W 001°27'0 0.0
2018-Sep-13 13:30N 54°59' W 001°27'0 0.0
2018-Sep-13 13:00N 54°59' W 001°27'0 0.0
2018-Sep-13 12:27N 54°59' W 001°27'0 0.0
2018-Sep-13 12:00N 54°59' W 001°27'0 0.0
2018-Sep-13 11:30N 54°59' W 001°27'0 0.0
2018-Sep-13 11:03N 54°59' W 001°27'0 0.0
2018-Sep-13 11:00N 54°59' W 001°27'0 0.0
2018-Sep-13 10:30N 54°59' W 001°27'0 0.0
2018-Sep-13 10:03N 54°59' W 001°27'0 0.0
2018-Sep-13 10:00N 54°59' W 001°27'0 0.0
2018-Sep-13 09:30N 54°59' W 001°27'0 0.0
2018-Sep-13 09:03N 54°59' W 001°27'0 0.0
2018-Sep-13 09:00N 54°59' W 001°27'0 0.0
2018-Sep-13 08:25N 54°59' W 001°27'0 0.4
2018-Sep-13 08:03N 54°60' W 001°27'0 3.8
2018-Sep-13 08:00N 54°60' W 001°27'4 9.1
2018-Sep-13 07:30N 54°60' W 001°19'715.3
2018-Sep-13 07:04N 54°56' W 001°09'115.2
2018-Sep-13 07:01N 54°56' W 001°07'23616.2
2018-Sep-12 16:23N 52°37' E 004°16'515.8
2018-Sep-12 16:03N 52°33' E 004°22'115.6
2018-Sep-12 15:59N 52°33' E 004°24'715.3
2018-Sep-12 15:30N 52°28' E 004°33'1 3.3
2018-Sep-12 15:03N 52°28' E 004°35'0 0.0
2018-Sep-12 15:00N 52°28' E 004°35'0 0.0
2018-Sep-12 14:03N 52°28' E 004°35'0 0.0
2018-Sep-12 14:00N 52°28' E 004°35'0 0.0
2018-Sep-12 13:30N 52°28' E 004°35'0 0.0
2018-Sep-12 13:03N 52°28' E 004°35'0 0.1
2018-Sep-12 13:00N 52°28' E 004°35'0 0.0
2018-Sep-12 12:30N 52°28' E 004°35'0 0.0
2018-Sep-12 12:03N 52°28' E 004°35'0 0.0
2018-Sep-12 12:00N 52°28' E 004°35'0 0.0
2018-Sep-12 11:30N 52°28' E 004°35'0 0.0
2018-Sep-12 11:03N 52°28' E 004°35'0 0.0
2018-Sep-12 11:00N 52°28' E 004°35'0 0.0
2018-Sep-12 10:30N 52°28' E 004°35'0 0.0
2018-Sep-12 10:03N 52°28' E 004°35'0 0.0
2018-Sep-12 09:57N 52°28' E 004°35'0 0.0
2018-Sep-12 09:30N 52°28' E 004°35'0 0.0
2018-Sep-12 09:03N 52°28' E 004°35'0 0.0
2018-Sep-12 09:00N 52°28' E 004°35'0 0.0
2018-Sep-12 08:30N 52°28' E 004°35'0 0.0
2018-Sep-12 08:03N 52°28' E 004°35'0 0.0
2018-Sep-12 08:00N 52°28' E 004°35'0 0.0
2018-Sep-12 07:30N 52°28' E 004°35'3 7.2
2018-Sep-12 07:04N 52°28' E 004°30'115.4
2018-Sep-12 07:01N 52°29' E 004°29'714.2
2018-Sep-12 06:30N 52°34' E 004°21'714.6
2018-Sep-12 06:04N 52°38' E 004°12'114.5
2018-Sep-12 06:00N 52°39' E 004°11'10016.0
2018-Sep-11 23:47N 53°38' E 001°58'517.5
2018-Sep-11 23:30N 53°40' E 001°51'3417.6
2018-Sep-11 21:34N 54°03' E 001°08'518.2
2018-Sep-11 21:16N 54°06' E 000°60'1718.1
2018-Sep-11 20:18N 54°17' E 000°36'7019.3
2018-Sep-11 16:40N 54°54' W 001°06'319.1
2018-Sep-11 16:30N 54°56' W 001°11'819.3
2018-Sep-11 16:03N 55°00' W 001°23'116.1
2018-Sep-11 16:00N 55°01' W 001°24'2 3.9
2018-Sep-11 15:31N 54°59' W 001°27'0 0.0
2018-Sep-11 15:03N 54°59' W 001°27'0 0.0
2018-Sep-11 15:00N 54°59' W 001°27'0 0.0
2018-Sep-11 14:00N 54°59' W 001°27'0 0.0
2018-Sep-11 13:27N 54°59' W 001°27'0 0.0
2018-Sep-11 12:57N 54°59' W 001°27'0 0.0
2018-Sep-11 12:27N 54°59' W 001°27'0 0.0
2018-Sep-11 12:00N 54°59' W 001°27'0 0.0
2018-Sep-11 11:30N 54°59' W 001°27'0 0.0
2018-Sep-11 11:00N 54°59' W 001°27'0 0.0
2018-Sep-11 10:30N 54°59' W 001°27'0 0.0
2018-Sep-11 10:00N 54°59' W 001°27'0 0.0
2018-Sep-11 09:27N 54°59' W 001°27'0 0.0
2018-Sep-11 09:03N 54°59' W 001°27'0 0.0
2018-Sep-11 09:00N 54°59' W 001°27'0 0.0
2018-Sep-11 08:30N 54°59' W 001°27'0 0.2
2018-Sep-11 08:03N 54°60' W 001°27'0 5.2
2018-Sep-11 08:00N 54°60' W 001°27'510.8
2018-Sep-11 07:31N 54°59' W 001°17'919.3
2018-Sep-11 07:02N 54°54' W 001°04'23116.0
2018-Sep-10 16:36N 52°38' E 004°13'315.5
2018-Sep-10 16:25N 52°37' E 004°16'715.6
2018-Sep-10 15:57N 52°32' E 004°25'714.8
2018-Sep-10 15:30N 52°28' E 004°34'1 1.7
2018-Sep-10 15:03N 52°28' E 004°35'0 0.0
2018-Sep-10 15:00N 52°28' E 004°35'0 0.0
2018-Sep-10 14:02N 52°28' E 004°35'0 0.0
2018-Sep-10 13:59N 52°28' E 004°35'0 0.0
2018-Sep-10 13:29N 52°28' E 004°35'0 0.0
2018-Sep-10 13:02N 52°28' E 004°35'0 0.0
2018-Sep-10 12:56N 52°28' E 004°35'0 0.0
2018-Sep-10 12:29N 52°28' E 004°35'0 0.0
2018-Sep-10 12:02N 52°28' E 004°35'0 0.0
2018-Sep-10 11:59N 52°28' E 004°35'0 0.0
2018-Sep-10 11:29N 52°28' E 004°35'0 0.0
2018-Sep-10 10:59N 52°28' E 004°35'0 0.0
2018-Sep-10 10:29N 52°28' E 004°35'0 0.0
2018-Sep-10 10:02N 52°28' E 004°35'0 0.0
2018-Sep-10 09:59N 52°28' E 004°35'0 0.0
2018-Sep-10 09:29N 52°28' E 004°35'0 0.0
2018-Sep-10 08:59N 52°28' E 004°35'0 0.0
2018-Sep-10 08:29N 52°28' E 004°35'0 0.0
2018-Sep-10 08:02N 52°28' E 004°35'0 0.0
2018-Sep-10 07:59N 52°28' E 004°35'0 0.1
2018-Sep-10 07:30N 52°28' E 004°35'3 7.8
2018-Sep-10 07:04N 52°28' E 004°29'115.5
2018-Sep-10 07:00N 52°29' E 004°28'815.4
2018-Sep-10 06:30N 52°34' E 004°19'715.3
2018-Sep-10 06:03N 52°39' E 004°11'115.4
2018-Sep-10 06:00N 52°40' E 004°10'10516.8
2018-Sep-09 23:46N 53°41' E 001°48'12318.1
2018-Sep-09 16:57N 54°53' W 001°03'819.5
2018-Sep-09 16:30N 54°58' W 001°16'714.6
2018-Sep-09 16:04N 55°01' W 001°26'0 7.2
2018-Sep-09 16:01N 55°00' W 001°26'1 2.1
2018-Sep-09 15:31N 54°59' W 001°27'0 0.0
2018-Sep-09 15:04N 54°59' W 001°27'0 0.0
2018-Sep-09 15:01N 54°59' W 001°27'0 0.0
2018-Sep-09 14:03N 54°59' W 001°27'0 0.1
2018-Sep-09 14:00N 54°59' W 001°27'0 0.0
2018-Sep-09 13:30N 54°59' W 001°27'0 0.0
2018-Sep-09 13:03N 54°59' W 001°27'0 0.0
2018-Sep-09 13:00N 54°59' W 001°27'0 0.0
2018-Sep-09 12:30N 54°59' W 001°27'0 0.0
2018-Sep-09 12:03N 54°59' W 001°27'0 0.1
2018-Sep-09 12:00N 54°59' W 001°27'0 0.0
2018-Sep-09 11:21N 54°59' W 001°27'0 0.0
2018-Sep-09 11:03N 54°59' W 001°27'0 0.0
2018-Sep-09 11:00N 54°59' W 001°27'0 0.0
2018-Sep-09 10:30N 54°59' W 001°27'0 0.0
2018-Sep-09 09:51N 54°59' W 001°27'0 0.0
2018-Sep-09 09:18N 54°59' W 001°27'0 0.0
2018-Sep-09 09:03N 54°59' W 001°27'0 0.0
2018-Sep-09 08:48N 54°59' W 001°27'0 0.0
2018-Sep-09 08:21N 54°59' W 001°27'0 0.8
2018-Sep-09 08:03N 54°60' W 001°27'0 6.3
2018-Sep-09 08:00N 55°00' W 001°27'510.8
2018-Sep-09 07:30N 54°59' W 001°18'918.9
2018-Sep-09 07:03N 54°54' W 001°05'119.1
2018-Sep-09 07:00N 54°54' W 001°04'  
Track history (hours):
 
Tides and Currents Weather Stations Pressure Air Temp Water Temp Dewpoint Dewpoint Depression Visibility Wind Speed Wind Dir Waves Ship Positions

King of Scandinavia

Ship's website: http://www.dfds.co.uk/DSW/EN/OnBoard/na/KING.htm

Last reported at 2018-Sep-18 16:55 UTC. Time now 2018-Sep-19 03:22 UTC.
Position N 52°38' E 004°15'.

Length 166 m; beam 27.6 m; draft 6.2 m.

Type: Ship. MMSI: 220449000.

Date/timePositionNaut miles runAvg speedWind from/ knotsBaromVisibWave heightAir tempDewpointWater temp
2018-Sep-18 16:55N 52°38' E 004°15'613.9
2018-Sep-18 16:30N 52°34' E 004°22'613.8
2018-Sep-18 16:04N 52°30' E 004°29'113.8
2018-Sep-18 16:00N 52°29' E 004°30'3 6.2
2018-Sep-18 15:30N 52°28' E 004°35'0 0.4
2018-Sep-18 15:03N 52°28' E 004°35'0 0.0
2018-Sep-18 15:00N 52°28' E 004°35'0 0.0
2018-Sep-18 14:29N 52°28' E 004°35'0 0.0
2018-Sep-18 13:50N 52°28' E 004°35'0 0.0
2018-Sep-18 13:23N 52°28' E 004°35'0 0.0
2018-Sep-18 12:50N 52°28' E 004°35'0 0.0
2018-Sep-18 12:20N 52°28' E 004°35'0 0.0
2018-Sep-18 11:02N 52°28' E 004°35'0 0.0
2018-Sep-18 10:59N 52°28' E 004°35'0 0.0
2018-Sep-18 09:38N 52°28' E 004°35'0 0.0
2018-Sep-18 09:14N 52°28' E 004°35'0 0.0
2018-Sep-18 08:56N 52°28' E 004°35'0 0.0
2018-Sep-18 08:26N 52°28' E 004°35'0 0.0
2018-Sep-18 07:56N 52°28' E 004°35'0 0.1
2018-Sep-18 07:28N 52°28' E 004°35'3 7.9
2018-Sep-18 07:04N 52°28' E 004°30'115.6
2018-Sep-18 07:00N 52°28' E 004°29'815.1
2018-Sep-18 06:30N 52°34' E 004°20'714.7
2018-Sep-18 06:03N 52°39' E 004°12'114.7
2018-Sep-18 06:00N 52°39' E 004°11'815.0
2018-Sep-18 05:30N 52°44' E 004°02'715.0
2018-Sep-18 05:03N 52°48' E 003°53'115.0
2018-Sep-18 05:00N 52°49' E 003°52'915.1
2018-Sep-18 04:23N 52°55' E 003°41'615.4
2018-Sep-18 04:00N 52°59' E 003°34'1017.4
2018-Sep-18 03:27N 53°05' E 003°21'717.7
2018-Sep-18 03:03N 53°09' E 003°11'117.9
2018-Sep-18 03:00N 53°09' E 003°10'917.8
2018-Sep-18 02:30N 53°15' E 002°58'817.9
2018-Sep-18 02:04N 53°19' E 002°47'117.9
2018-Sep-18 02:00N 53°20' E 002°46'918.0
2018-Sep-18 01:30N 53°25' E 002°34'818.1
2018-Sep-18 01:03N 53°30' E 002°23'118.1
2018-Sep-18 01:01N 53°30' E 002°22'918.2
2018-Sep-18 00:30N 53°35' E 002°09'818.2
2018-Sep-18 00:03N 53°39' E 001°56'118.2
2018-Sep-18 00:00N 53°39' E 001°55'1018.2
2018-Sep-17 23:29N 53°44' E 001°41'818.1
2018-Sep-17 23:03N 53°49' E 001°32'2017.9
2018-Sep-17 21:58N 54°03' E 001°08'817.9
2018-Sep-17 21:30N 54°07' E 000°56'817.8
2018-Sep-17 21:02N 54°12' E 000°44'217.9
2018-Sep-17 20:55N 54°13' E 000°41'818.1
2018-Sep-17 20:30N 54°17' E 000°30'1018.3
2018-Sep-17 19:58N 54°23' E 000°16'1118.1
2018-Sep-17 19:21N 54°29' W 000°00'4517.9
2018-Sep-17 16:51N 54°54' W 001°05'618.0
2018-Sep-17 16:31N 54°57' W 001°13'716.0
2018-Sep-17 16:03N 55°01' W 001°24'110.1
2018-Sep-17 16:00N 55°01' W 001°25'2 3.2
2018-Sep-17 15:30N 54°59' W 001°27'0 0.0
2018-Sep-17 15:03N 54°59' W 001°27'0 0.0
2018-Sep-17 15:00N 54°59' W 001°27'0 0.0
2018-Sep-17 14:24N 54°59' W 001°27'0 0.0
2018-Sep-17 13:54N 54°59' W 001°27'0 0.0
2018-Sep-17 13:24N 54°59' W 001°27'0 0.0
2018-Sep-17 12:48N 54°59' W 001°27'0 0.0
2018-Sep-17 12:27N 54°59' W 001°27'0 0.0
2018-Sep-17 11:57N 54°59' W 001°27'0 0.0
2018-Sep-17 11:12N 54°59' W 001°27'0 0.0
2018-Sep-17 10:54N 54°59' W 001°27'0 0.0
2018-Sep-17 10:27N 54°59' W 001°27'0 0.0
2018-Sep-17 09:57N 54°59' W 001°27'0 0.0
2018-Sep-17 09:30N 54°59' W 001°27'0 0.0
2018-Sep-17 08:48N 54°59' W 001°27'0 0.0
2018-Sep-17 08:30N 54°59' W 001°27'0 0.1
2018-Sep-17 08:03N 54°59' W 001°27'0 2.5
2018-Sep-17 08:00N 54°60' W 001°27'510.3
2018-Sep-17 07:30N 54°59' W 001°18'817.8
2018-Sep-17 07:03N 54°55' W 001°06'117.9
2018-Sep-17 07:00N 54°54' W 001°05'7217.3
2018-Sep-17 02:50N 54°14' E 000°38'15115.4
2018-Sep-16 17:01N 52°44' E 004°02'715.6
2018-Sep-16 16:33N 52°39' E 004°11'115.6
2018-Sep-16 16:30N 52°39' E 004°12'715.4
2018-Sep-16 16:03N 52°34' E 004°20'115.4
2018-Sep-16 16:00N 52°34' E 004°21'815.2
2018-Sep-16 15:30N 52°29' E 004°30'3 6.8
2018-Sep-16 15:03N 52°28' E 004°35'0 0.0
2018-Sep-16 15:00N 52°28' E 004°35'0 0.0
2018-Sep-16 14:29N 52°28' E 004°35'0 0.0
2018-Sep-16 13:29N 52°28' E 004°35'0 0.0
2018-Sep-16 13:02N 52°28' E 004°35'0 0.0
2018-Sep-16 12:56N 52°28' E 004°35'0 0.0
2018-Sep-16 12:29N 52°28' E 004°35'0 0.0
2018-Sep-16 12:02N 52°28' E 004°35'0 0.0
2018-Sep-16 11:59N 52°28' E 004°35'0 0.0
2018-Sep-16 11:26N 52°28' E 004°35'0 0.0
2018-Sep-16 10:59N 52°28' E 004°35'0 0.0
2018-Sep-16 10:29N 52°28' E 004°35'0 0.0
2018-Sep-16 10:02N 52°28' E 004°35'0 0.0
2018-Sep-16 09:59N 52°28' E 004°35'0 0.0
2018-Sep-16 09:29N 52°28' E 004°35'0 0.0
2018-Sep-16 09:02N 52°28' E 004°35'0 0.0
2018-Sep-16 08:59N 52°28' E 004°35'0 0.0
2018-Sep-16 08:29N 52°28' E 004°35'0 0.0
2018-Sep-16 08:02N 52°28' E 004°35'0 0.1
2018-Sep-16 07:59N 52°28' E 004°35'0 0.3
2018-Sep-16 07:30N 52°28' E 004°35'4 8.8
2018-Sep-16 07:04N 52°29' E 004°29'115.7
2018-Sep-16 07:01N 52°29' E 004°28'714.6
2018-Sep-16 06:31N 52°35' E 004°19'714.7
2018-Sep-16 06:03N 52°39' E 004°11'115.2
2018-Sep-16 06:00N 52°40' E 004°10'815.0
2018-Sep-16 05:29N 52°45' E 004°00'715.0
2018-Sep-16 05:03N 52°49' E 003°52'114.9
2018-Sep-16 04:59N 52°50' E 003°51'915.1
2018-Sep-16 04:23N 52°55' E 003°40'515.1
2018-Sep-16 04:02N 52°59' E 003°33'415.1
2018-Sep-16 03:48N 53°01' E 003°28'414.9
2018-Sep-16 03:30N 53°04' E 003°23'714.8
2018-Sep-16 03:03N 53°08' E 003°14'315.0
2018-Sep-16 02:50N 53°10' E 003°09'1715.5
2018-Sep-16 01:44N 53°20' E 002°46'418.6
2018-Sep-16 01:30N 53°22' E 002°40'1018.8
2018-Sep-16 00:58N 53°28' E 002°27'1618.7
2018-Sep-16 00:07N 53°37' E 002°04'218.9
2018-Sep-16 00:00N 53°38' E 002°01'918.9
2018-Sep-15 23:31N 53°42' E 001°47'5618.8
2018-Sep-15 20:31N 54°16' E 000°32'1319.1
2018-Sep-15 19:51N 54°24' E 000°14'5319.0
2018-Sep-15 17:02N 54°53' W 001°03'118.6
2018-Sep-15 17:01N 54°53' W 001°04'918.3
2018-Sep-15 16:31N 54°58' W 001°18'512.1
2018-Sep-15 16:03N 55°00' W 001°26'0 5.8
2018-Sep-15 16:00N 55°00' W 001°27'1 1.4
2018-Sep-15 15:30N 54°59' W 001°27'0 0.0
2018-Sep-15 14:52N 54°59' W 001°27'0 0.0
2018-Sep-15 13:52N 54°59' W 001°27'0 0.0
2018-Sep-15 13:22N 54°59' W 001°27'0 0.0
2018-Sep-15 12:52N 54°59' W 001°27'0 0.0
2018-Sep-15 12:25N 54°59' W 001°27'0 0.0
2018-Sep-15 11:55N 54°59' W 001°27'0 0.0
2018-Sep-15 11:25N 54°59' W 001°27'0 0.0
2018-Sep-15 11:01N 54°59' W 001°27'0 0.0
2018-Sep-15 10:55N 54°59' W 001°27'0 0.0
2018-Sep-15 10:25N 54°59' W 001°27'0 0.0
2018-Sep-15 09:55N 54°59' W 001°27'0 0.0
2018-Sep-15 09:28N 54°59' W 001°27'0 0.0
2018-Sep-15 08:58N 54°59' W 001°27'0 0.0
2018-Sep-15 08:28N 54°59' W 001°27'0 0.6
2018-Sep-15 08:03N 54°60' W 001°27'0 5.6
2018-Sep-15 08:00N 54°60' W 001°27'5 9.6
2018-Sep-15 07:31N 54°60' W 001°18'714.7
2018-Sep-15 07:03N 54°56' W 001°08'114.4
2018-Sep-15 06:59N 54°56' W 001°07'23616.3
2018-Sep-14 16:30N 52°37' E 004°16'715.1
2018-Sep-14 16:03N 52°32' E 004°24'115.0
2018-Sep-14 16:00N 52°32' E 004°25'713.9
2018-Sep-14 15:30N 52°28' E 004°35'0 0.7
2018-Sep-14 15:04N 52°28' E 004°35'0 0.0
2018-Sep-14 15:01N 52°28' E 004°35'0 0.0
2018-Sep-14 14:29N 52°28' E 004°35'0 0.0
2018-Sep-14 13:59N 52°28' E 004°35'0 0.0
2018-Sep-14 13:29N 52°28' E 004°35'0 0.0
2018-Sep-14 13:02N 52°28' E 004°35'0 0.0
2018-Sep-14 12:59N 52°28' E 004°35'0 0.0
2018-Sep-14 12:29N 52°28' E 004°35'0 0.0
2018-Sep-14 12:02N 52°28' E 004°35'0 0.0
2018-Sep-14 11:59N 52°28' E 004°35'0 0.0
2018-Sep-14 11:29N 52°28' E 004°35'0 0.0
2018-Sep-14 11:02N 52°28' E 004°35'0 0.0
2018-Sep-14 10:59N 52°28' E 004°35'0 0.0
2018-Sep-14 10:29N 52°28' E 004°35'0 0.0
2018-Sep-14 09:59N 52°28' E 004°35'0 0.0
2018-Sep-14 09:29N 52°28' E 004°35'0 0.0
2018-Sep-14 09:02N 52°28' E 004°35'0 0.0
2018-Sep-14 08:59N 52°28' E 004°35'0 0.0
2018-Sep-14 08:29N 52°28' E 004°35'0 0.0
2018-Sep-14 07:59N 52°28' E 004°35'0 0.2
2018-Sep-14 07:30N 52°28' E 004°35'3 7.8
2018-Sep-14 07:03N 52°28' E 004°29'114.8
2018-Sep-14 07:00N 52°29' E 004°28'714.4
2018-Sep-14 06:30N 52°34' E 004°20'715.0
2018-Sep-14 06:03N 52°39' E 004°12'115.3
2018-Sep-14 05:59N 52°39' E 004°11'7116.9
2018-Sep-14 01:46N 53°23' E 002°38'3018.1
2018-Sep-14 00:07N 53°39' E 001°55'13019.2
2018-Sep-13 17:23N 54°54' W 001°06'619.6
2018-Sep-13 17:03N 54°58' W 001°15'119.6
2018-Sep-13 17:00N 54°58' W 001°16'612.2
2018-Sep-13 16:30N 54°60' W 001°27'0 0.9
2018-Sep-13 16:03N 54°59' W 001°27'0 0.0
2018-Sep-13 16:00N 54°59' W 001°27'0 0.0
2018-Sep-13 15:30N 54°59' W 001°27'0 0.0
2018-Sep-13 14:57N 54°59' W 001°27'0 0.0
2018-Sep-13 13:57N 54°59' W 001°27'0 0.0
2018-Sep-13 13:30N 54°59' W 001°27'0 0.0
2018-Sep-13 13:00N 54°59' W 001°27'0 0.0
2018-Sep-13 12:27N 54°59' W 001°27'0 0.0
2018-Sep-13 12:00N 54°59' W 001°27'0 0.0
2018-Sep-13 11:30N 54°59' W 001°27'0 0.0
2018-Sep-13 11:03N 54°59' W 001°27'0 0.0
2018-Sep-13 11:00N 54°59' W 001°27'0 0.0
2018-Sep-13 10:30N 54°59' W 001°27'0 0.0
2018-Sep-13 10:03N 54°59' W 001°27'0 0.0
2018-Sep-13 10:00N 54°59' W 001°27'0 0.0
2018-Sep-13 09:30N 54°59' W 001°27'0 0.0
2018-Sep-13 09:03N 54°59' W 001°27'0 0.0
2018-Sep-13 09:00N 54°59' W 001°27'0 0.0
2018-Sep-13 08:25N 54°59' W 001°27'0 0.4
2018-Sep-13 08:03N 54°60' W 001°27'0 3.8
2018-Sep-13 08:00N 54°60' W 001°27'4 9.1
2018-Sep-13 07:30N 54°60' W 001°19'715.3
2018-Sep-13 07:04N 54°56' W 001°09'115.2
2018-Sep-13 07:01N 54°56' W 001°07'23616.2
2018-Sep-12 16:23N 52°37' E 004°16'515.8
2018-Sep-12 16:03N 52°33' E 004°22'115.6
2018-Sep-12 15:59N 52°33' E 004°24'715.3
2018-Sep-12 15:30N 52°28' E 004°33'1 3.3
2018-Sep-12 15:03N 52°28' E 004°35'0 0.0
2018-Sep-12 15:00N 52°28' E 004°35'0 0.0
2018-Sep-12 14:03N 52°28' E 004°35'0 0.0
2018-Sep-12 14:00N 52°28' E 004°35'0 0.0
2018-Sep-12 13:30N 52°28' E 004°35'0 0.0
2018-Sep-12 13:03N 52°28' E 004°35'0 0.1
2018-Sep-12 13:00N 52°28' E 004°35'0 0.0
2018-Sep-12 12:30N 52°28' E 004°35'0 0.0
2018-Sep-12 12:03N 52°28' E 004°35'0 0.0
2018-Sep-12 12:00N 52°28' E 004°35'0 0.0
2018-Sep-12 11:30N 52°28' E 004°35'0 0.0
2018-Sep-12 11:03N 52°28' E 004°35'0 0.0
2018-Sep-12 11:00N 52°28' E 004°35'0 0.0
2018-Sep-12 10:30N 52°28' E 004°35'0 0.0
2018-Sep-12 10:03N 52°28' E 004°35'0 0.0
2018-Sep-12 09:57N 52°28' E 004°35'0 0.0
2018-Sep-12 09:30N 52°28' E 004°35'0 0.0
2018-Sep-12 09:03N 52°28' E 004°35'0 0.0
2018-Sep-12 09:00N 52°28' E 004°35'0 0.0
2018-Sep-12 08:30N 52°28' E 004°35'0 0.0
2018-Sep-12 08:03N 52°28' E 004°35'0 0.0
2018-Sep-12 08:00N 52°28' E 004°35'0 0.0
2018-Sep-12 07:30N 52°28' E 004°35'3 7.2
2018-Sep-12 07:04N 52°28' E 004°30'115.4
2018-Sep-12 07:01N 52°29' E 004°29'714.2
2018-Sep-12 06:30N 52°34' E 004°21'714.6
2018-Sep-12 06:04N 52°38' E 004°12'114.5
2018-Sep-12 06:00N 52°39' E 004°11'10016.0
2018-Sep-11 23:47N 53°38' E 001°58'517.5
2018-Sep-11 23:30N 53°40' E 001°51'3417.6
2018-Sep-11 21:34N 54°03' E 001°08'518.2
2018-Sep-11 21:16N 54°06' E 000°60'1718.1
2018-Sep-11 20:18N 54°17' E 000°36'7019.3
2018-Sep-11 16:40N 54°54' W 001°06'319.1
2018-Sep-11 16:30N 54°56' W 001°11'819.3
2018-Sep-11 16:03N 55°00' W 001°23'116.1
2018-Sep-11 16:00N 55°01' W 001°24'2 3.9
2018-Sep-11 15:31N 54°59' W 001°27'0 0.0
2018-Sep-11 15:03N 54°59' W 001°27'0 0.0
2018-Sep-11 15:00N 54°59' W 001°27'0 0.0
2018-Sep-11 14:00N 54°59' W 001°27'0 0.0
2018-Sep-11 13:27N 54°59' W 001°27'0 0.0
2018-Sep-11 12:57N 54°59' W 001°27'0 0.0
2018-Sep-11 12:27N 54°59' W 001°27'0 0.0
2018-Sep-11 12:00N 54°59' W 001°27'0 0.0
2018-Sep-11 11:30N 54°59' W 001°27'0 0.0
2018-Sep-11 11:00N 54°59' W 001°27'0 0.0
2018-Sep-11 10:30N 54°59' W 001°27'0 0.0
2018-Sep-11 10:00N 54°59' W 001°27'0 0.0
2018-Sep-11 09:27N 54°59' W 001°27'0 0.0
2018-Sep-11 09:03N 54°59' W 001°27'0 0.0
2018-Sep-11 09:00N 54°59' W 001°27'0 0.0
2018-Sep-11 08:30N 54°59' W 001°27'0 0.2
2018-Sep-11 08:03N 54°60' W 001°27'0 5.2
2018-Sep-11 08:00N 54°60' W 001°27'510.8
2018-Sep-11 07:31N 54°59' W 001°17'919.3
2018-Sep-11 07:02N 54°54' W 001°04'23116.0
2018-Sep-10 16:36N 52°38' E 004°13'315.5
2018-Sep-10 16:25N 52°37' E 004°16'715.6
2018-Sep-10 15:57N 52°32' E 004°25'714.8
2018-Sep-10 15:30N 52°28' E 004°34'1 1.7
2018-Sep-10 15:03N 52°28' E 004°35'0 0.0
2018-Sep-10 15:00N 52°28' E 004°35'0 0.0
2018-Sep-10 14:02N 52°28' E 004°35'0 0.0
2018-Sep-10 13:59N 52°28' E 004°35'0 0.0
2018-Sep-10 13:29N 52°28' E 004°35'0 0.0
2018-Sep-10 13:02N 52°28' E 004°35'0 0.0
2018-Sep-10 12:56N 52°28' E 004°35'0 0.0
2018-Sep-10 12:29N 52°28' E 004°35'0 0.0
2018-Sep-10 12:02N 52°28' E 004°35'0 0.0
2018-Sep-10 11:59N 52°28' E 004°35'0 0.0
2018-Sep-10 11:29N 52°28' E 004°35'0 0.0
2018-Sep-10 10:59N 52°28' E 004°35'0 0.0
2018-Sep-10 10:29N 52°28' E 004°35'0 0.0
2018-Sep-10 10:02N 52°28' E 004°35'0 0.0
2018-Sep-10 09:59N 52°28' E 004°35'0 0.0
2018-Sep-10 09:29N 52°28' E 004°35'0 0.0
2018-Sep-10 08:59N 52°28' E 004°35'0 0.0
2018-Sep-10 08:29N 52°28' E 004°35'0 0.0
2018-Sep-10 08:02N 52°28' E 004°35'0 0.0
2018-Sep-10 07:59N 52°28' E 004°35'0 0.1
2018-Sep-10 07:30N 52°28' E 004°35'3 7.8
2018-Sep-10 07:04N 52°28' E 004°29'115.5
2018-Sep-10 07:00N 52°29' E 004°28'815.4
2018-Sep-10 06:30N 52°34' E 004°19'715.3
2018-Sep-10 06:03N 52°39' E 004°11'115.4
2018-Sep-10 06:00N 52°40' E 004°10'10516.8
2018-Sep-09 23:46N 53°41' E 001°48'12318.1
2018-Sep-09 16:57N 54°53' W 001°03'819.5
2018-Sep-09 16:30N 54°58' W 001°16'714.6
2018-Sep-09 16:04N 55°01' W 001°26'0 7.2
2018-Sep-09 16:01N 55°00' W 001°26'1 2.1
2018-Sep-09 15:31N 54°59' W 001°27'0 0.0
2018-Sep-09 15:04N 54°59' W 001°27'0 0.0
2018-Sep-09 15:01N 54°59' W 001°27'0 0.0
2018-Sep-09 14:03N 54°59' W 001°27'0 0.1
2018-Sep-09 14:00N 54°59' W 001°27'0 0.0
2018-Sep-09 13:30N 54°59' W 001°27'0 0.0
2018-Sep-09 13:03N 54°59' W 001°27'0 0.0
2018-Sep-09 13:00N 54°59' W 001°27'0 0.0
2018-Sep-09 12:30N 54°59' W 001°27'0 0.0
2018-Sep-09 12:03N 54°59' W 001°27'0 0.1
2018-Sep-09 12:00N 54°59' W 001°27'0 0.0
2018-Sep-09 11:21N 54°59' W 001°27'0 0.0
2018-Sep-09 11:03N 54°59' W 001°27'0 0.0
2018-Sep-09 11:00N 54°59' W 001°27'0 0.0
2018-Sep-09 10:30N 54°59' W 001°27'0 0.0
2018-Sep-09 09:51N 54°59' W 001°27'0 0.0
2018-Sep-09 09:18N 54°59' W 001°27'0 0.0
2018-Sep-09 09:03N 54°59' W 001°27'0 0.0
2018-Sep-09 08:48N 54°59' W 001°27'0 0.0
2018-Sep-09 08:21N 54°59' W 001°27'0 0.8
2018-Sep-09 08:03N 54°60' W 001°27'0 6.3
2018-Sep-09 08:00N 55°00' W 001°27'510.8
2018-Sep-09 07:30N 54°59' W 001°18'918.9
2018-Sep-09 07:03N 54°54' W 001°05'119.1
2018-Sep-09 07:00N 54°54' W 001°04'  

Dump ship's entire track history